TAF Text Data
IDs:
Format:
Raw Decoded Include METAR

Data at: 2150 UTC 01 Dec 2021

KBFF 011720Z 0118/0218 29014G24KT P6SM BKN200
  FM020000 29008KT P6SM SCT200